| time (UTC) | temp F | wind direction | speed knots | gust knots | rain 1hr in | rain 24hr in | rain mn in | humidity % | barometer mb |
| 20260902051615 | 61 | 0 | 0.0 | 0.0 | 0.00 | 0.35 | 0.00 | 79 | 1021.3 |
| 20260902050054 | 62 | 0 | 0.0 | 0.0 | 0.00 | 0.35 | 0.00 | 79 | 1021.1 |
| 20260902044631 | 62 | 0 | 0.0 | 0.0 | 0.00 | 0.35 | 0.00 | 79 | 1020.8 |
| 20260902043102 | 61 | 0 | 0.0 | 0.0 | 0.00 | 0.35 | 0.00 | 80 | 1020.7 |
| 20260902041601 | 62 | 0 | 0.0 | 0.0 | 0.00 | 0.35 | 0.00 | 80 | 1020.6 |
| 20260902040055 | 62 | 0 | 0.0 | 0.0 | 0.00 | 0.35 | 0.00 | 80 | 1020.4 |
| 20260902034558 | 62 | 0 | 0.0 | 0.0 | 0.00 | 0.35 | 0.35 | 80 | 1020.1 |
| 20260902033053 | 62 | 0 | 0.0 | 0.0 | 0.00 | 0.35 | 0.35 | 79 | 1020.1 |
| 20260902031558 | 62 | 0 | 0.0 | 0.0 | 0.00 | 0.35 | 0.35 | 80 | 1020.1 |
| 20260902030058 | 62 | 0 | 0.0 | 0.0 | 0.00 | 0.35 | 0.35 | 80 | 1020.2 |
| 20260902024559 | 62 | 0 | 0.0 | 0.0 | 0.00 | 0.35 | 0.35 | 80 | 1020.1 |
| 20260902023050 | 62 | 0 | 0.0 | 0.0 | 0.00 | 0.35 | 0.35 | 80 | 1020.1 |
| 20260902021551 | 62 | 0 | 0.0 | 0.0 | 0.00 | 0.35 | 0.35 | 80 | 1020.3 |
| 20260902020047 | 62 | 0 | 0.0 | 0.0 | 0.00 | 0.35 | 0.35 | 80 | 1020.3 |
| 20260902014554 | 63 | 0 | 0.0 | 0.9 | 0.00 | 0.35 | 0.35 | 80 | 1020.2 |
| 20260902013101 | 63 | 0 | 0.0 | 0.0 | 0.00 | 0.35 | 0.35 | 80 | 1020.2 |
| 20260902011549 | 63 | 0 | 0.0 | 0.0 | 0.00 | 0.35 | 0.35 | 80 | 1020.2 |
| 20260902010047 | 63 | 0 | 0.0 | 0.0 | 0.00 | 0.35 | 0.35 | 80 | 1020.0 |
| 20260902004555 | 63 | 0 | 0.0 | 0.0 | 0.00 | 0.35 | 0.35 | 80 | 1020.0 |
| 20260902003054 | 63 | 0 | 0.0 | 0.9 | 0.00 | 0.35 | 0.35 | 81 | 1019.9 |
| 20260902001552 | 63 | 0 | 0.0 | 0.0 | 0.00 | 0.35 | 0.35 | 81 | 1019.6 |
| 20260902000052 | 63 | 0 | 0.0 | 0.0 | 0.00 | 0.35 | 0.35 | 81 | 1019.5 |
| 20260901234609 | 63 | 0 | 0.0 | 0.0 | 0.00 | 0.35 | 0.35 | 81 | 1019.6 |
| 20260901233104 | 64 | 0 | 0.0 | 0.0 | 0.00 | 0.35 | 0.35 | 81 | 1019.7 |
| 20260901231615 | 64 | 0 | 0.0 | 0.0 | 0.00 | 0.35 | 0.35 | 81 | 1019.5 |
| 20260901230109 | 64 | 0 | 0.0 | 0.0 | 0.00 | 0.35 | 0.35 | 82 | 1019.7 |
| 20260901224559 | 64 | 0 | 0.0 | 0.0 | 0.00 | 0.35 | 0.35 | 82 | 1019.5 |
| 20260901223054 | 64 | 0 | 0.0 | 0.0 | 0.00 | 0.35 | 0.35 | 82 | 1019.6 |
| 20260901221607 | 64 | 0 | 0.0 | 0.0 | 0.00 | 0.35 | 0.35 | 81 | 1019.5 |
| 20260901220051 | 64 | 0 | 0.0 | 0.0 | 0.00 | 0.35 | 0.35 | 81 | 1019.5 |
| 20260901214550 | 64 | 0 | 0.0 | 0.0 | 0.00 | 0.35 | 0.35 | 81 | 1019.3 |
| 20260901213057 | 64 | 0 | 0.0 | 0.9 | 0.00 | 0.35 | 0.35 | 82 | 1019.3 |
| 20260901211556 | 64 | 0 | 0.0 | 0.9 | 0.00 | 0.35 | 0.35 | 82 | 1019.2 |
| 20260901210052 | 64 | 0 | 0.0 | 0.9 | 0.00 | 0.35 | 0.35 | 83 | 1019.3 |
| 20260901204548 | 64 | 0 | 0.0 | 1.7 | 0.00 | 0.35 | 0.35 | 83 | 1019.2 |
| 20260901203054 | 65 | 177 | 0.0 | 0.9 | 0.00 | 0.35 | 0.35 | 81 | 1018.9 |
| 20260901201554 | 65 | 0 | 0.0 | 0.9 | 0.00 | 0.35 | 0.35 | 81 | 1018.8 |
| 20260901200054 | 65 | 0 | 0.0 | 0.9 | 0.00 | 0.35 | 0.35 | 81 | 1018.8 |
| 20260901194554 | 66 | 177 | 0.0 | 1.7 | 0.00 | 0.35 | 0.35 | 81 | 1019.0 |
| 20260901193052 | 65 | 0 | 0.0 | 0.9 | 0.00 | 0.35 | 0.35 | 80 | 1018.9 |
| 20260901191546 | 65 | 0 | 0.0 | 0.9 | 0.00 | 0.35 | 0.35 | 80 | 1018.9 |
| 20260901190052 | 65 | 177 | 0.0 | 1.7 | 0.00 | 0.35 | 0.35 | 80 | 1019.0 |
| 20260901184554 | 65 | 0 | 0.0 | 0.9 | 0.01 | 0.35 | 0.35 | 80 | 1019.0 |
| 20260901183111 | 64 | 0 | 0.0 | 0.9 | 0.01 | 0.35 | 0.35 | 80 | 1019.1 |
| 20260901181553 | 64 | 0 | 0.0 | 0.9 | 0.01 | 0.35 | 0.35 | 81 | 1019.0 |
| 20260901180049 | 64 | 0 | 0.0 | 0.9 | 0.01 | 0.35 | 0.35 | 80 | 1018.7 |
| 20260901174600 | 64 | 177 | 0.0 | 0.9 | 0.00 | 0.34 | 0.34 | 80 | 1018.5 |
| 20260901173122 | 64 | 177 | 0.0 | 0.9 | 0.00 | 0.34 | 0.34 | 80 | 1018.5 |
| 20260901171557 | 64 | 0 | 0.0 | 1.7 | 0.00 | 0.34 | 0.34 | 80 | 1018.8 |
| 20260901170055 | 63 | 0 | 0.0 | 0.9 | 0.00 | 0.34 | 0.34 | 80 | 1019.0 |
| 20260901164558 | 63 | 0 | 0.0 | 0.9 | 0.00 | 0.34 | 0.34 | 80 | 1019.0 |
| 20260901163111 | 63 | 0 | 0.0 | 0.9 | 0.00 | 0.34 | 0.34 | 80 | 1019.0 |
| 20260901161608 | 63 | 0 | 0.0 | 0.9 | 0.01 | 0.34 | 0.34 | 81 | 1019.0 |
| 20260901160103 | 63 | 0 | 0.0 | 0.9 | 0.01 | 0.34 | 0.34 | 81 | 1018.8 |
| 20260901154601 | 63 | 0 | 0.0 | 0.9 | 0.01 | 0.34 | 0.34 | 81 | 1018.6 |
| 20260901153052 | 63 | 177 | 0.0 | 0.9 | 0.02 | 0.34 | 0.34 | 81 | 1018.8 |
| 20260901151557 | 63 | 0 | 0.0 | 1.7 | 0.02 | 0.33 | 0.33 | 81 | 1018.8 |
| 20260901144553 | 62 | 0 | 0.0 | 0.9 | 0.06 | 0.33 | 0.33 | 81 | 1018.7 |
| 20260901143103 | 62 | 0 | 0.0 | 0.9 | 0.09 | 0.32 | 0.32 | 82 | 1018.5 |
| 20260901141602 | 62 | 0 | 0.0 | 0.9 | 0.12 | 0.31 | 0.31 | 82 | 1018.5 |
| 20260901140055 | 62 | 177 | 0.0 | 0.9 | 0.16 | 0.29 | 0.29 | 83 | 1018.7 |
| 20260901134600 | 62 | 0 | 0.0 | 0.9 | 0.19 | 0.27 | 0.27 | 83 | 1019.0 |
| 20260901133104 | 62 | 0 | 0.0 | 0.9 | 0.19 | 0.23 | 0.23 | 84 | 1019.3 |
| 20260901131557 | 62 | 0 | 0.0 | 0.9 | 0.18 | 0.19 | 0.19 | 85 | 1019.3 |
| 20260901130106 | 62 | 0 | 0.0 | 0.0 | 0.13 | 0.13 | 0.13 | 85 | 1019.4 |
| 20260901124556 | 63 | 0 | 0.0 | 0.9 | 0.08 | 0.08 | 0.08 | 86 | 1019.3 |
| 20260901123052 | 64 | 0 | 0.0 | 0.9 | 0.03 | 0.03 | 0.03 | 85 | 1019.3 |
| 20260901121553 | 65 | 0 | 0.0 | 0.0 | 0.01 | 0.01 | 0.01 | 85 | 1019.3 |
| 20260901120106 | 65 | 0 | 0.0 | 0.0 | 0.00 | 0.00 | 0.00 | 85 | 1019.0 |
| 20260901114552 | 65 | 0 | 0.0 | 0.0 | 0.00 | 0.00 | 0.00 | 85 | 1019.1 |
| 20260901113101 | 65 | 0 | 0.0 | 0.0 | 0.00 | 0.00 | 0.00 | 84 | 1019.0 |
| 20260901111609 | 66 | 0 | 0.0 | 0.9 | 0.00 | 0.00 | 0.00 | 84 | 1018.8 |
| 20260901110056 | 66 | 0 | 0.0 | 0.0 | 0.00 | 0.00 | 0.00 | 84 | 1018.6 |
| 20260901104555 | 66 | 0 | 0.0 | 0.9 | 0.00 | 0.00 | 0.00 | 84 | 1018.5 |
| 20260901103102 | 66 | 0 | 0.0 | 0.0 | 0.00 | 0.00 | 0.00 | 84 | 1018.2 |
| 20260901101612 | 66 | 0 | 0.0 | 0.0 | 0.00 | 0.00 | 0.00 | 83 | 1017.9 |
| 20260901100109 | 66 | 0 | 0.0 | 0.0 | 0.00 | 0.00 | 0.00 | 83 | 1017.7 |
| 20260901094554 | 66 | 0 | 0.0 | 0.0 | 0.00 | 0.00 | 0.00 | 82 | 1017.8 |
| 20260901093052 | 66 | 0 | 0.0 | 0.0 | 0.00 | 0.00 | 0.00 | 82 | 1017.8 |
| 20260901091556 | 66 | 0 | 0.0 | 0.0 | 0.00 | 0.00 | 0.00 | 82 | 1017.6 |
| 20260901090100 | 66 | 0 | 0.0 | 0.9 | 0.00 | 0.00 | 0.00 | 81 | 1017.8 |
| 20260901084606 | 66 | 0 | 0.0 | 0.9 | 0.00 | 0.00 | 0.00 | 81 | 1017.7 |
| 20260901083049 | 66 | 0 | 0.0 | 0.0 | 0.00 | 0.00 | 0.00 | 80 | 1018.0 |
| 20260901081557 | 66 | 0 | 0.0 | 0.9 | 0.00 | 0.00 | 0.00 | 80 | 1017.8 |
| 20260901080109 | 66 | 0 | 0.0 | 0.0 | 0.00 | 0.00 | 0.00 | 80 | 1018.0 |
| 20260901074628 | 66 | 0 | 0.0 | 0.9 | 0.00 | 0.00 | 0.00 | 79 | 1018.1 |
| 20260901073059 | 66 | 0 | 0.0 | 0.9 | 0.00 | 0.00 | 0.00 | 80 | 1018.2 |
| 20260901071555 | 66 | 0 | 0.0 | 0.0 | 0.00 | 0.00 | 0.00 | 81 | 1018.2 |
| 20260901070053 | 66 | 0 | 0.0 | 0.0 | 0.00 | 0.00 | 0.00 | 81 | 1018.5 |
| 20260901064550 | 65 | 0 | 0.0 | 1.7 | 0.00 | 0.00 | 0.00 | 82 | 1018.4 |
| 20260901063056 | 65 | 0 | 0.0 | 0.9 | 0.00 | 0.00 | 0.00 | 83 | 1018.5 |
| 20260901061555 | 64 | 0 | 0.0 | 0.0 | 0.00 | 0.00 | 0.00 | 85 | 1018.4 |
| 20260901060100 | 64 | 0 | 0.0 | 0.9 | 0.00 | 0.00 | 0.00 | 85 | 1018.6 |
| 20260901054555 | 64 | 0 | 0.0 | 0.0 | 0.00 | 0.00 | 0.00 | 85 | 1018.7 |
| 20260901053100 | 64 | 0 | 0.0 | 0.0 | 0.00 | 0.00 | 0.00 | 85 | 1018.7 |